Terminal Aerodrome Forecast
Issued by NWS Grand Forks, ND

Home | Current Version | Previous Version | Text Only | Print | Product List | Glossary Off
Versions: 1 2 3 4 5 6 7 8 9 10 11 12 13

759
FTUS43 KFGF 240520
TAFFAR
TAF
KFAR 240520Z 2406/2506 31010KT P6SM BKN060
     FM241100 31012G20KT P6SM SCT035 BKN050
     FM241600 32018G28KT P6SM BKN030
     FM242000 32018G28KT P6SM VCSH BKN035=

USA.gov is the U.S. government's official web portal to all federal, state and local government web resources and services.